sensor_id;sensor_type;location;lat;lon;timestamp;temperature;humidity
80274;DHT22;69576;51.902;-8.462;2023-04-28T00:00:46;13.70;70.20
80274;DHT22;69576;51.902;-8.462;2023-04-28T00:03:12;13.70;70.20
80274;DHT22;69576;51.902;-8.462;2023-04-28T00:05:38;13.70;70.40
80274;DHT22;69576;51.902;-8.462;2023-04-28T00:08:04;13.70;70.30
80274;DHT22;69576;51.902;-8.462;2023-04-28T00:10:30;13.70;70.50
80274;DHT22;69576;51.902;-8.462;2023-04-28T00:12:58;13.70;70.40
80274;DHT22;69576;51.902;-8.462;2023-04-28T00:15:23;13.70;70.40
80274;DHT22;69576;51.902;-8.462;2023-04-28T00:17:49;13.70;70.40
80274;DHT22;69576;51.902;-8.462;2023-04-28T00:20:15;13.70;70.30
80274;DHT22;69576;51.902;-8.462;2023-04-28T00:22:41;13.70;70.40
80274;DHT22;69576;51.902;-8.462;2023-04-28T00:25:07;13.70;70.40
80274;DHT22;69576;51.902;-8.462;2023-04-28T00:27:35;13.70;70.40
80274;DHT22;69576;51.902;-8.462;2023-04-28T00:30:01;13.70;70.40
80274;DHT22;69576;51.902;-8.462;2023-04-28T00:32:28;13.70;70.30
80274;DHT22;69576;51.902;-8.462;2023-04-28T00:34:53;13.70;70.30
80274;DHT22;69576;51.902;-8.462;2023-04-28T00:37:20;13.60;70.40
80274;DHT22;69576;51.902;-8.462;2023-04-28T00:39:45;13.60;70.40
80274;DHT22;69576;51.902;-8.462;2023-04-28T00:42:14;13.60;70.30
80274;DHT22;69576;51.902;-8.462;2023-04-28T00:44:40;13.60;70.40
80274;DHT22;69576;51.902;-8.462;2023-04-28T00:47:07;13.60;70.40
80274;DHT22;69576;51.902;-8.462;2023-04-28T00:49:34;13.60;70.40
80274;DHT22;69576;51.902;-8.462;2023-04-28T00:52:06;13.60;70.50
80274;DHT22;69576;51.902;-8.462;2023-04-28T00:54:34;13.60;70.40
80274;DHT22;69576;51.902;-8.462;2023-04-28T00:57:01;13.60;70.50
80274;DHT22;69576;51.902;-8.462;2023-04-28T00:59:30;13.60;70.50
80274;DHT22;69576;51.902;-8.462;2023-04-28T01:01:56;13.60;70.40
80274;DHT22;69576;51.902;-8.462;2023-04-28T01:04:22;13.60;70.50
80274;DHT22;69576;51.902;-8.462;2023-04-28T01:06:49;13.60;70.50
80274;DHT22;69576;51.902;-8.462;2023-04-28T01:09:15;13.60;70.60
80274;DHT22;69576;51.902;-8.462;2023-04-28T01:11:41;13.60;70.50
80274;DHT22;69576;51.902;-8.462;2023-04-28T01:14:09;13.60;70.50
80274;DHT22;69576;51.902;-8.462;2023-04-28T01:16:37;13.60;70.60
80274;DHT22;69576;51.902;-8.462;2023-04-28T01:19:07;13.60;70.50
80274;DHT22;69576;51.902;-8.462;2023-04-28T01:21:36;13.60;70.50
80274;DHT22;69576;51.902;-8.462;2023-04-28T01:24:05;13.60;70.50
80274;DHT22;69576;51.902;-8.462;2023-04-28T01:26:30;13.60;70.70
80274;DHT22;69576;51.902;-8.462;2023-04-28T01:28:58;13.60;70.70
80274;DHT22;69576;51.902;-8.462;2023-04-28T01:31:24;13.60;70.60
80274;DHT22;69576;51.902;-8.462;2023-04-28T01:33:50;13.60;70.70
80274;DHT22;69576;51.902;-8.462;2023-04-28T01:36:16;13.60;70.70
80274;DHT22;69576;51.902;-8.462;2023-04-28T01:38:41;13.50;70.70
80274;DHT22;69576;51.902;-8.462;2023-04-28T01:41:07;13.50;70.70
80274;DHT22;69576;51.902;-8.462;2023-04-28T01:43:33;13.50;70.60
80274;DHT22;69576;51.902;-8.462;2023-04-28T01:45:58;13.50;70.70
80274;DHT22;69576;51.902;-8.462;2023-04-28T01:48:24;13.50;70.70
80274;DHT22;69576;51.902;-8.462;2023-04-28T01:50:50;13.50;70.80
80274;DHT22;69576;51.902;-8.462;2023-04-28T01:53:18;13.50;70.80
80274;DHT22;69576;51.902;-8.462;2023-04-28T01:55:45;13.50;70.80
80274;DHT22;69576;51.902;-8.462;2023-04-28T01:58:12;13.50;70.80
80274;DHT22;69576;51.902;-8.462;2023-04-28T02:00:40;13.50;70.80
80274;DHT22;69576;51.902;-8.462;2023-04-28T02:03:09;13.50;70.80
80274;DHT22;69576;51.902;-8.462;2023-04-28T02:05:34;13.50;70.70
80274;DHT22;69576;51.902;-8.462;2023-04-28T02:08:01;13.50;70.80
80274;DHT22;69576;51.902;-8.462;2023-04-28T02:10:27;13.50;70.90
80274;DHT22;69576;51.902;-8.462;2023-04-28T02:12:52;13.50;70.80
80274;DHT22;69576;51.902;-8.462;2023-04-28T02:15:21;13.50;70.90
80274;DHT22;69576;51.902;-8.462;2023-04-28T02:17:46;13.50;70.80
80274;DHT22;69576;51.902;-8.462;2023-04-28T02:20:12;13.50;70.90
80274;DHT22;69576;51.902;-8.462;2023-04-28T02:22:41;13.50;70.90
80274;DHT22;69576;51.902;-8.462;2023-04-28T02:25:09;13.50;70.80
80274;DHT22;69576;51.902;-8.462;2023-04-28T02:27:37;13.50;70.80
80274;DHT22;69576;51.902;-8.462;2023-04-28T02:30:06;13.50;70.90
80274;DHT22;69576;51.902;-8.462;2023-04-28T02:32:32;13.50;71.00
80274;DHT22;69576;51.902;-8.462;2023-04-28T02:34:58;13.50;71.00
80274;DHT22;69576;51.902;-8.462;2023-04-28T02:37:24;13.50;71.00
80274;DHT22;69576;51.902;-8.462;2023-04-28T02:39:49;13.50;70.90
80274;DHT22;69576;51.902;-8.462;2023-04-28T02:42:15;13.50;71.00
80274;DHT22;69576;51.902;-8.462;2023-04-28T02:44:43;13.50;71.00
80274;DHT22;69576;51.902;-8.462;2023-04-28T02:47:09;13.50;71.00
80274;DHT22;69576;51.902;-8.462;2023-04-28T02:49:35;13.50;70.90
80274;DHT22;69576;51.902;-8.462;2023-04-28T02:52:00;13.50;71.00
80274;DHT22;69576;51.902;-8.462;2023-04-28T02:54:26;13.50;70.90
80274;DHT22;69576;51.902;-8.462;2023-04-28T02:56:55;13.50;71.00
80274;DHT22;69576;51.902;-8.462;2023-04-28T02:59:22;13.50;71.10
80274;DHT22;69576;51.902;-8.462;2023-04-28T03:01:48;13.50;71.00
80274;DHT22;69576;51.902;-8.462;2023-04-28T03:04:14;13.50;71.10
80274;DHT22;69576;51.902;-8.462;2023-04-28T03:06:41;13.50;71.10
80274;DHT22;69576;51.902;-8.462;2023-04-28T03:09:09;13.50;71.00
80274;DHT22;69576;51.902;-8.462;2023-04-28T03:11:38;13.50;71.00
80274;DHT22;69576;51.902;-8.462;2023-04-28T03:14:04;13.50;71.10
80274;DHT22;69576;51.902;-8.462;2023-04-28T03:16:29;13.50;71.00
80274;DHT22;69576;51.902;-8.462;2023-04-28T03:18:55;13.50;71.00
80274;DHT22;69576;51.902;-8.462;2023-04-28T03:21:21;13.50;71.00
80274;DHT22;69576;51.902;-8.462;2023-04-28T03:23:53;13.50;71.10
80274;DHT22;69576;51.902;-8.462;2023-04-28T03:26:19;13.50;71.10
80274;DHT22;69576;51.902;-8.462;2023-04-28T03:28:45;13.50;71.10
80274;DHT22;69576;51.902;-8.462;2023-04-28T03:31:11;13.50;71.00
80274;DHT22;69576;51.902;-8.462;2023-04-28T03:33:36;13.50;71.00
80274;DHT22;69576;51.902;-8.462;2023-04-28T03:36:02;13.50;71.20
80274;DHT22;69576;51.902;-8.462;2023-04-28T03:38:28;13.50;71.40
80274;DHT22;69576;51.902;-8.462;2023-04-28T03:40:54;13.50;71.20
80274;DHT22;69576;51.902;-8.462;2023-04-28T03:43:22;13.50;71.20
80274;DHT22;69576;51.902;-8.462;2023-04-28T03:45:47;13.50;71.10
80274;DHT22;69576;51.902;-8.462;2023-04-28T03:48:14;13.50;71.00
80274;DHT22;69576;51.902;-8.462;2023-04-28T03:50:40;13.50;71.10
80274;DHT22;69576;51.902;-8.462;2023-04-28T03:53:06;13.50;71.00
80274;DHT22;69576;51.902;-8.462;2023-04-28T03:55:32;13.50;71.00
80274;DHT22;69576;51.902;-8.462;2023-04-28T03:58:00;13.50;71.00
80274;DHT22;69576;51.902;-8.462;2023-04-28T04:00:26;13.50;71.10
80274;DHT22;69576;51.902;-8.462;2023-04-28T04:02:52;13.50;71.00
80274;DHT22;69576;51.902;-8.462;2023-04-28T04:05:17;13.50;71.00
80274;DHT22;69576;51.902;-8.462;2023-04-28T04:07:43;13.50;71.00
80274;DHT22;69576;51.902;-8.462;2023-04-28T04:10:09;13.50;71.00
80274;DHT22;69576;51.902;-8.462;2023-04-28T04:12:35;13.50;71.10
80274;DHT22;69576;51.902;-8.462;2023-04-28T04:15:03;13.50;71.10
80274;DHT22;69576;51.902;-8.462;2023-04-28T04:17:32;13.50;71.20
80274;DHT22;69576;51.902;-8.462;2023-04-28T04:20:02;13.50;71.20
80274;DHT22;69576;51.902;-8.462;2023-04-28T04:22:28;13.50;71.10
80274;DHT22;69576;51.902;-8.462;2023-04-28T04:24:53;13.50;71.10
80274;DHT22;69576;51.902;-8.462;2023-04-28T04:27:22;13.50;71.10
80274;DHT22;69576;51.902;-8.462;2023-04-28T04:29:48;13.50;71.00
80274;DHT22;69576;51.902;-8.462;2023-04-28T04:32:16;13.50;71.10
80274;DHT22;69576;51.902;-8.462;2023-04-28T04:34:41;13.50;71.10
80274;DHT22;69576;51.902;-8.462;2023-04-28T04:37:10;13.50;71.10
80274;DHT22;69576;51.902;-8.462;2023-04-28T04:39:36;13.50;71.10
80274;DHT22;69576;51.902;-8.462;2023-04-28T04:42:02;13.50;71.10
80274;DHT22;69576;51.902;-8.462;2023-04-28T04:44:28;13.50;71.10
80274;DHT22;69576;51.902;-8.462;2023-04-28T04:46:56;13.50;71.10
80274;DHT22;69576;51.902;-8.462;2023-04-28T04:49:22;13.50;71.00
80274;DHT22;69576;51.902;-8.462;2023-04-28T04:51:48;13.50;71.20
80274;DHT22;69576;51.902;-8.462;2023-04-28T04:54:13;13.50;71.20
80274;DHT22;69576;51.902;-8.462;2023-04-28T04:56:39;13.50;71.20
80274;DHT22;69576;51.902;-8.462;2023-04-28T04:59:07;13.50;71.20
80274;DHT22;69576;51.902;-8.462;2023-04-28T05:01:32;13.50;71.20
80274;DHT22;69576;51.902;-8.462;2023-04-28T05:04:01;13.50;71.30
80274;DHT22;69576;51.902;-8.462;2023-04-28T05:06:29;13.50;71.20
80274;DHT22;69576;51.902;-8.462;2023-04-28T05:08:55;13.50;71.40
80274;DHT22;69576;51.902;-8.462;2023-04-28T05:11:22;13.50;71.50
80274;DHT22;69576;51.902;-8.462;2023-04-28T05:13:48;13.50;71.30
80274;DHT22;69576;51.902;-8.462;2023-04-28T05:16:14;13.50;71.20
80274;DHT22;69576;51.902;-8.462;2023-04-28T05:18:40;13.50;71.20
80274;DHT22;69576;51.902;-8.462;2023-04-28T05:21:08;13.50;71.20
80274;DHT22;69576;51.902;-8.462;2023-04-28T05:23:36;13.50;71.20
80274;DHT22;69576;51.902;-8.462;2023-04-28T05:26:01;13.50;71.20
80274;DHT22;69576;51.902;-8.462;2023-04-28T05:28:29;13.50;71.20
80274;DHT22;69576;51.902;-8.462;2023-04-28T05:30:55;13.50;71.20
80274;DHT22;69576;51.902;-8.462;2023-04-28T05:33:21;13.50;71.20
80274;DHT22;69576;51.902;-8.462;2023-04-28T05:35:48;13.50;71.20
80274;DHT22;69576;51.902;-8.462;2023-04-28T05:38:19;13.50;71.20
80274;DHT22;69576;51.902;-8.462;2023-04-28T05:40:45;13.50;71.20
80274;DHT22;69576;51.902;-8.462;2023-04-28T05:43:13;13.50;71.10
80274;DHT22;69576;51.902;-8.462;2023-04-28T05:45:39;13.50;71.20
80274;DHT22;69576;51.902;-8.462;2023-04-28T05:48:05;13.50;71.20
80274;DHT22;69576;51.902;-8.462;2023-04-28T05:50:30;13.50;71.10
80274;DHT22;69576;51.902;-8.462;2023-04-28T05:52:56;13.50;71.20
80274;DHT22;69576;51.902;-8.462;2023-04-28T05:55:22;13.50;71.30
80274;DHT22;69576;51.902;-8.462;2023-04-28T05:57:52;13.50;71.50
80274;DHT22;69576;51.902;-8.462;2023-04-28T06:00:19;13.50;71.30
80274;DHT22;69576;51.902;-8.462;2023-04-28T06:02:44;13.60;71.20
80274;DHT22;69576;51.902;-8.462;2023-04-28T06:05:10;13.60;71.20
80274;DHT22;69576;51.902;-8.462;2023-04-28T06:07:36;13.60;71.30
80274;DHT22;69576;51.902;-8.462;2023-04-28T06:10:02;13.60;71.10
80274;DHT22;69576;51.902;-8.462;2023-04-28T06:12:28;13.60;71.20
80274;DHT22;69576;51.902;-8.462;2023-04-28T06:14:56;13.60;71.30
80274;DHT22;69576;51.902;-8.462;2023-04-28T06:17:22;13.60;71.20
80274;DHT22;69576;51.902;-8.462;2023-04-28T06:19:48;13.60;71.10
80274;DHT22;69576;51.902;-8.462;2023-04-28T06:22:15;13.70;71.10
80274;DHT22;69576;51.902;-8.462;2023-04-28T06:24:41;13.70;71.00
80274;DHT22;69576;51.902;-8.462;2023-04-28T06:27:09;13.70;71.20
80274;DHT22;69576;51.902;-8.462;2023-04-28T06:29:38;13.70;71.10
80274;DHT22;69576;51.902;-8.462;2023-04-28T06:32:04;13.80;71.40
80274;DHT22;69576;51.902;-8.462;2023-04-28T06:34:30;13.90;71.20
80274;DHT22;69576;51.902;-8.462;2023-04-28T06:36:57;13.90;71.10
80274;DHT22;69576;51.902;-8.462;2023-04-28T06:39:23;13.90;70.90
80274;DHT22;69576;51.902;-8.462;2023-04-28T06:41:49;13.90;70.90
80274;DHT22;69576;51.902;-8.462;2023-04-28T06:44:15;13.90;70.90
80274;DHT22;69576;51.902;-8.462;2023-04-28T06:46:41;13.90;70.80
80274;DHT22;69576;51.902;-8.462;2023-04-28T06:49:06;13.90;70.70
80274;DHT22;69576;51.902;-8.462;2023-04-28T06:51:32;13.90;70.70
80274;DHT22;69576;51.902;-8.462;2023-04-28T06:53:58;13.90;70.90
80274;DHT22;69576;51.902;-8.462;2023-04-28T06:56:24;14.00;70.90
80274;DHT22;69576;51.902;-8.462;2023-04-28T06:58:50;14.00;70.90
80274;DHT22;69576;51.902;-8.462;2023-04-28T07:01:16;14.00;70.90
80274;DHT22;69576;51.902;-8.462;2023-04-28T07:03:42;14.00;70.90
80274;DHT22;69576;51.902;-8.462;2023-04-28T07:06:10;14.10;70.90
80274;DHT22;69576;51.902;-8.462;2023-04-28T07:08:36;14.10;70.80
80274;DHT22;69576;51.902;-8.462;2023-04-28T07:11:01;14.10;70.80
80274;DHT22;69576;51.902;-8.462;2023-04-28T07:13:29;14.10;70.70
80274;DHT22;69576;51.902;-8.462;2023-04-28T07:15:57;14.10;70.60
80274;DHT22;69576;51.902;-8.462;2023-04-28T07:18:23;14.20;70.60
80274;DHT22;69576;51.902;-8.462;2023-04-28T07:20:52;14.20;70.50
80274;DHT22;69576;51.902;-8.462;2023-04-28T07:23:18;14.20;70.50
80274;DHT22;69576;51.902;-8.462;2023-04-28T07:25:45;14.20;70.60
80274;DHT22;69576;51.902;-8.462;2023-04-28T07:28:12;14.30;70.50
80274;DHT22;69576;51.902;-8.462;2023-04-28T07:30:38;14.30;70.40
80274;DHT22;69576;51.902;-8.462;2023-04-28T07:33:06;14.30;70.20
80274;DHT22;69576;51.902;-8.462;2023-04-28T07:35:35;14.30;70.10
80274;DHT22;69576;51.902;-8.462;2023-04-28T07:38:01;14.30;70.10
80274;DHT22;69576;51.902;-8.462;2023-04-28T07:40:27;14.30;70.10
80274;DHT22;69576;51.902;-8.462;2023-04-28T07:42:53;14.30;70.10
80274;DHT22;69576;51.902;-8.462;2023-04-28T07:45:19;14.40;70.20
80274;DHT22;69576;51.902;-8.462;2023-04-28T07:47:44;14.40;70.00
80274;DHT22;69576;51.902;-8.462;2023-04-28T07:50:10;14.40;69.80
80274;DHT22;69576;51.902;-8.462;2023-04-28T07:52:36;14.40;69.90
80274;DHT22;69576;51.902;-8.462;2023-04-28T07:55:02;14.40;69.90
80274;DHT22;69576;51.902;-8.462;2023-04-28T07:57:29;14.40;69.90
80274;DHT22;69576;51.902;-8.462;2023-04-28T07:59:55;14.40;69.90
80274;DHT22;69576;51.902;-8.462;2023-04-28T08:02:21;14.40;70.00
80274;DHT22;69576;51.902;-8.462;2023-04-28T08:04:47;14.40;69.90
80274;DHT22;69576;51.902;-8.462;2023-04-28T08:07:12;14.40;69.90
80274;DHT22;69576;51.902;-8.462;2023-04-28T08:09:39;14.40;70.10
80274;DHT22;69576;51.902;-8.462;2023-04-28T08:12:07;14.40;69.90
80274;DHT22;69576;51.902;-8.462;2023-04-28T08:14:33;14.40;69.80
80274;DHT22;69576;51.902;-8.462;2023-04-28T08:16:59;14.50;69.80
80274;DHT22;69576;51.902;-8.462;2023-04-28T08:19:25;14.50;69.80
80274;DHT22;69576;51.902;-8.462;2023-04-28T08:21:53;14.50;69.70
80274;DHT22;69576;51.902;-8.462;2023-04-28T08:24:18;14.50;69.70
80274;DHT22;69576;51.902;-8.462;2023-04-28T08:26:46;14.50;69.70
80274;DHT22;69576;51.902;-8.462;2023-04-28T08:29:12;14.50;69.70
80274;DHT22;69576;51.902;-8.462;2023-04-28T08:31:40;14.50;69.70
80274;DHT22;69576;51.902;-8.462;2023-04-28T08:34:06;14.50;70.00
80274;DHT22;69576;51.902;-8.462;2023-04-28T08:36:32;14.50;69.80
80274;DHT22;69576;51.902;-8.462;2023-04-28T08:38:59;14.50;70.30
80274;DHT22;69576;51.902;-8.462;2023-04-28T08:41:26;14.50;70.20
80274;DHT22;69576;51.902;-8.462;2023-04-28T08:43:53;14.50;70.20
80274;DHT22;69576;51.902;-8.462;2023-04-28T08:46:20;14.50;70.50
80274;DHT22;69576;51.902;-8.462;2023-04-28T08:48:49;14.50;70.30
80274;DHT22;69576;51.902;-8.462;2023-04-28T08:51:27;14.50;70.00
80274;DHT22;69576;51.902;-8.462;2023-04-28T08:54:01;14.50;69.70
80274;DHT22;69576;51.902;-8.462;2023-04-28T08:56:34;14.50;70.20
80274;DHT22;69576;51.902;-8.462;2023-04-28T08:59:03;14.50;70.10
80274;DHT22;69576;51.902;-8.462;2023-04-28T09:01:31;14.50;70.40
80274;DHT22;69576;51.902;-8.462;2023-04-28T09:04:00;14.50;70.30
80274;DHT22;69576;51.902;-8.462;2023-04-28T09:06:34;14.50;70.00
80274;DHT22;69576;51.902;-8.462;2023-04-28T09:09:28;14.50;70.00
80274;DHT22;69576;51.902;-8.462;2023-04-28T09:12:03;14.50;70.30
80274;DHT22;69576;51.902;-8.462;2023-04-28T09:14:34;14.60;70.30
80274;DHT22;69576;51.902;-8.462;2023-04-28T09:17:01;14.60;70.30
80274;DHT22;69576;51.902;-8.462;2023-04-28T09:19:34;14.60;70.50
80274;DHT22;69576;51.902;-8.462;2023-04-28T09:22:03;14.60;70.50
80274;DHT22;69576;51.902;-8.462;2023-04-28T09:24:34;14.60;70.10
80274;DHT22;69576;51.902;-8.462;2023-04-28T09:27:03;14.60;69.90
80274;DHT22;69576;51.902;-8.462;2023-04-28T09:29:29;14.60;70.10
80274;DHT22;69576;51.902;-8.462;2023-04-28T09:32:18;14.60;70.00
80274;DHT22;69576;51.902;-8.462;2023-04-28T09:34:52;14.60;69.90
80274;DHT22;69576;51.902;-8.462;2023-04-28T09:37:20;14.70;69.80
80274;DHT22;69576;51.902;-8.462;2023-04-28T09:39:50;14.70;69.90
80274;DHT22;69576;51.902;-8.462;2023-04-28T09:42:42;14.70;69.70
80274;DHT22;69576;51.902;-8.462;2023-04-28T09:45:13;14.80;69.70
80274;DHT22;69576;51.902;-8.462;2023-04-28T09:47:41;14.80;69.70
80274;DHT22;69576;51.902;-8.462;2023-04-28T09:50:08;14.80;69.70
80274;DHT22;69576;51.902;-8.462;2023-04-28T09:52:37;14.80;69.50
80274;DHT22;69576;51.902;-8.462;2023-04-28T09:55:04;14.90;69.40
80274;DHT22;69576;51.902;-8.462;2023-04-28T09:57:32;14.90;69.40
80274;DHT22;69576;51.902;-8.462;2023-04-28T09:59:59;14.90;69.30
80274;DHT22;69576;51.902;-8.462;2023-04-28T10:02:25;14.90;69.20
80274;DHT22;69576;51.902;-8.462;2023-04-28T10:04:51;14.90;69.10
80274;DHT22;69576;51.902;-8.462;2023-04-28T10:07:19;14.90;69.10
80274;DHT22;69576;51.902;-8.462;2023-04-28T10:09:49;14.90;69.20
80274;DHT22;69576;51.902;-8.462;2023-04-28T10:12:19;14.90;69.10
80274;DHT22;69576;51.902;-8.462;2023-04-28T10:14:46;14.90;69.20
80274;DHT22;69576;51.902;-8.462;2023-04-28T10:17:15;14.90;69.20
80274;DHT22;69576;51.902;-8.462;2023-04-28T10:19:43;14.90;69.20
80274;DHT22;69576;51.902;-8.462;2023-04-28T10:27:41;14.90;69.20
80274;DHT22;69576;51.902;-8.462;2023-04-28T10:30:16;14.80;69.30
80274;DHT22;69576;51.902;-8.462;2023-04-28T10:32:42;14.80;69.30
80274;DHT22;69576;51.902;-8.462;2023-04-28T10:38:13;14.80;69.20
80274;DHT22;69576;51.902;-8.462;2023-04-28T10:40:41;14.80;69.30
80274;DHT22;69576;51.902;-8.462;2023-04-28T10:43:53;14.80;69.30
80274;DHT22;69576;51.902;-8.462;2023-04-28T10:46:03;14.80;69.30
80274;DHT22;69576;51.902;-8.462;2023-04-28T10:58:46;14.80;69.20
80274;DHT22;69576;51.902;-8.462;2023-04-28T11:16:58;14.80;69.10
80274;DHT22;69576;51.902;-8.462;2023-04-28T11:19:32;14.80;69.10
80274;DHT22;69576;51.902;-8.462;2023-04-28T11:22:00;14.80;69.10
80274;DHT22;69576;51.902;-8.462;2023-04-28T11:24:27;14.80;69.10
80274;DHT22;69576;51.902;-8.462;2023-04-28T11:26:54;14.90;69.10
80274;DHT22;69576;51.902;-8.462;2023-04-28T11:29:35;14.80;69.10
80274;DHT22;69576;51.902;-8.462;2023-04-28T11:32:02;14.90;69.00
80274;DHT22;69576;51.902;-8.462;2023-04-28T11:34:31;14.80;69.00
80274;DHT22;69576;51.902;-8.462;2023-04-28T11:37:00;14.80;69.10
80274;DHT22;69576;51.902;-8.462;2023-04-28T11:39:30;14.80;69.10
80274;DHT22;69576;51.902;-8.462;2023-04-28T11:41:57;14.80;69.00
80274;DHT22;69576;51.902;-8.462;2023-04-28T11:44:28;14.80;69.00
80274;DHT22;69576;51.902;-8.462;2023-04-28T11:46:56;14.80;69.00
80274;DHT22;69576;51.902;-8.462;2023-04-28T11:49:45;14.80;69.00
80274;DHT22;69576;51.902;-8.462;2023-04-28T11:52:12;14.90;69.00
80274;DHT22;69576;51.902;-8.462;2023-04-28T11:54:38;14.90;69.00
80274;DHT22;69576;51.902;-8.462;2023-04-28T11:57:19;14.90;68.90
80274;DHT22;69576;51.902;-8.462;2023-04-28T11:59:45;14.90;68.80
80274;DHT22;69576;51.902;-8.462;2023-04-28T12:02:12;14.90;68.80
80274;DHT22;69576;51.902;-8.462;2023-04-28T12:04:40;14.90;68.70
80274;DHT22;69576;51.902;-8.462;2023-04-28T12:07:11;14.90;68.70
80274;DHT22;69576;51.902;-8.462;2023-04-28T12:09:39;15.00;68.70
80274;DHT22;69576;51.902;-8.462;2023-04-28T12:12:10;15.00;68.70
80274;DHT22;69576;51.902;-8.462;2023-04-28T12:14:58;15.00;68.50
80274;DHT22;69576;51.902;-8.462;2023-04-28T12:17:43;15.00;68.60
80274;DHT22;69576;51.902;-8.462;2023-04-28T12:20:12;15.00;68.60
80274;DHT22;69576;51.902;-8.462;2023-04-28T12:22:57;15.00;68.50
80274;DHT22;69576;51.902;-8.462;2023-04-28T12:25:22;15.00;68.50
80274;DHT22;69576;51.902;-8.462;2023-04-28T12:28:05;15.00;68.40
80274;DHT22;69576;51.902;-8.462;2023-04-28T12:30:33;15.00;68.40
80274;DHT22;69576;51.902;-8.462;2023-04-28T12:33:00;15.00;68.40
80274;DHT22;69576;51.902;-8.462;2023-04-28T12:35:28;15.00;68.30
80274;DHT22;69576;51.902;-8.462;2023-04-28T12:37:55;15.00;68.30
80274;DHT22;69576;51.902;-8.462;2023-04-28T12:40:21;15.00;68.30
80274;DHT22;69576;51.902;-8.462;2023-04-28T12:42:47;15.00;68.20
80274;DHT22;69576;51.902;-8.462;2023-04-28T12:45:14;15.00;68.30
80274;DHT22;69576;51.902;-8.462;2023-04-28T12:47:41;15.10;68.20
80274;DHT22;69576;51.902;-8.462;2023-04-28T12:50:07;15.20;68.20
80274;DHT22;69576;51.902;-8.462;2023-04-28T12:52:35;15.20;68.20
80274;DHT22;69576;51.902;-8.462;2023-04-28T12:55:02;15.20;68.00
80274;DHT22;69576;51.902;-8.462;2023-04-28T12:57:31;15.20;68.00
80274;DHT22;69576;51.902;-8.462;2023-04-28T12:59:56;15.30;68.00
80274;DHT22;69576;51.902;-8.462;2023-04-28T13:02:22;15.30;68.00
80274;DHT22;69576;51.902;-8.462;2023-04-28T13:04:48;15.30;67.90
80274;DHT22;69576;51.902;-8.462;2023-04-28T13:07:16;15.30;67.90
80274;DHT22;69576;51.902;-8.462;2023-04-28T13:09:42;15.30;67.80
80274;DHT22;69576;51.902;-8.462;2023-04-28T13:12:08;15.30;67.70
80274;DHT22;69576;51.902;-8.462;2023-04-28T13:14:34;15.30;67.80
80274;DHT22;69576;51.902;-8.462;2023-04-28T13:17:00;15.30;67.60
80274;DHT22;69576;51.902;-8.462;2023-04-28T13:19:27;15.30;67.60
80274;DHT22;69576;51.902;-8.462;2023-04-28T13:21:54;15.40;67.60
80274;DHT22;69576;51.902;-8.462;2023-04-28T13:24:20;15.30;67.60
80274;DHT22;69576;51.902;-8.462;2023-04-28T13:26:50;15.30;67.50
80274;DHT22;69576;51.902;-8.462;2023-04-28T13:29:15;15.30;67.50
80274;DHT22;69576;51.902;-8.462;2023-04-28T13:31:42;15.30;67.60
80274;DHT22;69576;51.902;-8.462;2023-04-28T13:34:10;15.30;67.60
80274;DHT22;69576;51.902;-8.462;2023-04-28T13:36:40;15.30;67.60
80274;DHT22;69576;51.902;-8.462;2023-04-28T13:39:07;15.30;67.70
80274;DHT22;69576;51.902;-8.462;2023-04-28T13:41:38;15.30;67.70
80274;DHT22;69576;51.902;-8.462;2023-04-28T13:44:07;15.20;67.70
80274;DHT22;69576;51.902;-8.462;2023-04-28T13:46:33;15.20;67.70
80274;DHT22;69576;51.902;-8.462;2023-04-28T13:48:59;15.20;67.70
80274;DHT22;69576;51.902;-8.462;2023-04-28T13:51:28;15.20;67.80
80274;DHT22;69576;51.902;-8.462;2023-04-28T13:53:56;15.20;67.80
80274;DHT22;69576;51.902;-8.462;2023-04-28T13:56:22;15.20;67.80
80274;DHT22;69576;51.902;-8.462;2023-04-28T13:58:48;15.20;67.80
80274;DHT22;69576;51.902;-8.462;2023-04-28T14:01:14;15.20;67.90
80274;DHT22;69576;51.902;-8.462;2023-04-28T14:03:39;15.20;67.80
80274;DHT22;69576;51.902;-8.462;2023-04-28T14:06:06;15.20;67.80
80274;DHT22;69576;51.902;-8.462;2023-04-28T14:08:32;15.30;67.80
80274;DHT22;69576;51.902;-8.462;2023-04-28T14:11:00;15.20;67.80
80274;DHT22;69576;51.902;-8.462;2023-04-28T14:13:26;15.30;67.70
80274;DHT22;69576;51.902;-8.462;2023-04-28T14:15:55;15.30;67.70
80274;DHT22;69576;51.902;-8.462;2023-04-28T14:18:20;15.30;67.70
80274;DHT22;69576;51.902;-8.462;2023-04-28T14:20:46;15.30;67.60
80274;DHT22;69576;51.902;-8.462;2023-04-28T14:23:14;15.30;67.50
80274;DHT22;69576;51.902;-8.462;2023-04-28T14:25:40;15.40;67.50
80274;DHT22;69576;51.902;-8.462;2023-04-28T14:28:05;15.40;67.50
80274;DHT22;69576;51.902;-8.462;2023-04-28T14:30:34;15.40;67.60
80274;DHT22;69576;51.902;-8.462;2023-04-28T14:32:59;15.40;67.50
80274;DHT22;69576;51.902;-8.462;2023-04-28T14:35:27;15.40;67.60
80274;DHT22;69576;51.902;-8.462;2023-04-28T14:37:54;15.50;67.50
80274;DHT22;69576;51.902;-8.462;2023-04-28T14:40:21;15.50;67.50
80274;DHT22;69576;51.902;-8.462;2023-04-28T14:42:49;15.50;67.40
80274;DHT22;69576;51.902;-8.462;2023-04-28T14:45:15;15.50;67.40
80274;DHT22;69576;51.902;-8.462;2023-04-28T14:47:41;15.50;67.30
80274;DHT22;69576;51.902;-8.462;2023-04-28T14:50:08;15.50;67.40
80274;DHT22;69576;51.902;-8.462;2023-04-28T14:52:34;15.60;67.40
80274;DHT22;69576;51.902;-8.462;2023-04-28T14:55:00;15.50;67.20
80274;DHT22;69576;51.902;-8.462;2023-04-28T14:57:26;15.50;67.20
80274;DHT22;69576;51.902;-8.462;2023-04-28T14:59:52;15.50;67.20
80274;DHT22;69576;51.902;-8.462;2023-04-28T15:02:19;15.50;67.20
80274;DHT22;69576;51.902;-8.462;2023-04-28T15:04:53;15.50;67.20
80274;DHT22;69576;51.902;-8.462;2023-04-28T15:07:21;15.50;67.20
80274;DHT22;69576;51.902;-8.462;2023-04-28T15:09:48;15.50;67.20
80274;DHT22;69576;51.902;-8.462;2023-04-28T15:12:14;15.50;67.20
80274;DHT22;69576;51.902;-8.462;2023-04-28T15:14:40;15.50;67.20
80274;DHT22;69576;51.902;-8.462;2023-04-28T15:17:06;15.50;67.20
80274;DHT22;69576;51.902;-8.462;2023-04-28T15:19:32;15.50;67.20
80274;DHT22;69576;51.902;-8.462;2023-04-28T15:21:58;15.40;67.20
80274;DHT22;69576;51.902;-8.462;2023-04-28T15:24:24;15.40;67.20
80274;DHT22;69576;51.902;-8.462;2023-04-28T15:26:50;15.40;67.20
80274;DHT22;69576;51.902;-8.462;2023-04-28T15:29:16;15.50;67.20
80274;DHT22;69576;51.902;-8.462;2023-04-28T15:31:44;15.40;67.20
80274;DHT22;69576;51.902;-8.462;2023-04-28T15:34:10;15.50;67.30
80274;DHT22;69576;51.902;-8.462;2023-04-28T15:36:36;15.50;67.20
80274;DHT22;69576;51.902;-8.462;2023-04-28T15:39:04;15.50;67.20
80274;DHT22;69576;51.902;-8.462;2023-04-28T15:41:31;15.50;67.20
80274;DHT22;69576;51.902;-8.462;2023-04-28T15:44:00;15.60;67.20
80274;DHT22;69576;51.902;-8.462;2023-04-28T15:46:29;15.60;67.10
80274;DHT22;69576;51.902;-8.462;2023-04-28T15:48:55;15.60;67.10
80274;DHT22;69576;51.902;-8.462;2023-04-28T15:51:23;15.60;67.20